Time;durP1;ratioP1;P1;durP2;ratioP2;P2;SDS_P1;SDS_P2;PMS_P1;PMS_P2;Temp;Humidity;BMP_temperature;BMP_pressure;BME280_temperature;BME280_humidity;BME280_pressure;Samples;Min_cycle;Max_cycle;Signal;HPM_P1;HPM_P2
2021/06/13 10:15:14;;;;;;;7.63;5.30;;;23.50;50.00;;;;;;4218939;27;984931;-47
2021/06/13 10:17:39;;;;;;;2.08;1.17;;;23.50;50.70;;;;;;4239109;27;20053;-46
2021/06/13 10:20:01;;;;;;;0.38;0.38;;;23.50;51.10;;;;;;4238950;27;20043;-45
2021/06/13 10:22:25;;;;;;;0.17;0.17;;;23.50;51.10;;;;;;4239539;27;20493;-44
2021/06/13 10:24:49;;;;;;;0.17;0.17;;;23.50;50.90;;;;;;4239240;27;20079;-45
2021/06/13 10:27:14;;;;;;;0.00;0.00;;;23.40;50.90;;;;;;4239563;27;20045;-46
2021/06/13 10:29:39;;;;;;;5.28;2.80;;;23.50;50.50;;;;;;4239086;27;20061;-48
2021/06/13 10:32:06;;;;;;;0.22;0.22;;;23.50;50.40;;;;;;4238869;27;20130;-46
2021/06/13 10:34:29;;;;;;;0.10;0.10;;;23.50;50.20;;;;;;4238890;27;20054;-46
2021/06/13 10:36:53;;;;;;;0.30;0.30;;;23.60;50.10;;;;;;4238425;27;20051;-46
2021/06/13 10:39:17;;;;;;;0.00;0.00;;;23.60;50.20;;;;;;4239207;27;20054;-46
2021/06/13 10:41:40;;;;;;;0.20;0.20;;;23.60;50.40;;;;;;4236685;27;20405;-45
2021/06/13 10:44:05;;;;;;;0.00;0.00;;;23.60;50.40;;;;;;4239308;27;20062;-45
2021/06/13 10:46:31;;;;;;;10.88;1.75;;;23.60;50.40;;;;;;4239238;27;20618;-50
2021/06/13 10:48:56;;;;;;;0.08;0.08;;;23.70;50.50;;;;;;4238609;27;20689;-45
2021/06/13 10:51:40;;;;;;;1.10;1.10;;;23.70;50.50;;;;;;4238837;27;20070;-48
2021/06/13 10:54:27;;;;;;;0.00;0.00;;;23.70;50.60;;;;;;4238785;27;20643;-49
2021/06/13 10:56:51;;;;;;;0.00;0.00;;;23.70;50.60;;;;;;4238986;27;20692;-46
2021/06/13 10:59:14;;;;;;;0.35;0.35;;;23.70;50.90;;;;;;4222794;28;20497;-45
2021/06/13 11:01:38;;;;;;;11.07;1.02;;;23.80;51.20;;;;;;4222465;28;20047;-46
2021/06/13 11:04:04;;;;;;;0.00;0.00;;;23.80;51.20;;;;;;4235572;27;20116;-47
2021/06/13 11:06:45;;;;;;;0.00;0.00;;;23.70;50.80;;;;;;4231574;27;20055;-45
2021/06/13 11:09:07;;;;;;;;;;;23.70;50.80;;;;;;4238499;27;20077;-45
2021/06/13 11:11:37;;;;;;;0.00;0.00;;;23.70;51.00;;;;;;4238713;27;19924;-45
2021/06/13 11:14:23;;;;;;;0.00;0.00;;;23.70;51.70;;;;;;4237842;27;20052;-45
2021/06/13 11:16:46;;;;;;;0.00;0.00;;;23.70;51.20;;;;;;4238416;27;20047;-46
2021/06/13 11:19:28;;;;;;;0.00;0.00;;;23.70;51.20;;;;;;4238051;27;20047;-46
2021/06/13 11:21:50;;;;;;;0.00;0.00;;;23.70;51.00;;;;;;4238139;27;20047;-45
2021/06/13 11:24:12;;;;;;;0.20;0.20;;;23.70;51.20;;;;;;4238622;27;20042;-45
2021/06/13 11:26:37;;;;;;;0.00;0.00;;;23.80;51.30;;;;;;4226454;27;20496;-45
2021/06/13 11:28:59;;;;;;;0.00;0.00;;;23.80;51.30;;;;;;4226314;27;20047;-49
2021/06/13 11:31:24;;;;;;;0.10;0.10;;;23.70;51.30;;;;;;4227256;27;20108;-46
2021/06/13 11:33:48;;;;;;;0.00;0.00;;;23.70;51.30;;;;;;4226603;28;20059;-44
2021/06/13 11:36:28;;;;;;;0.45;0.45;;;23.70;51.20;;;;;;4226470;27;20085;-47
2021/06/13 11:38:52;;;;;;;0.03;0.03;;;23.80;51.20;;;;;;4226634;27;20040;-45
2021/06/13 11:41:25;;;;;;;1.70;1.60;;;23.80;51.10;;;;;;4210671;28;20366;-46
2021/06/13 11:43:47;;;;;;;1.10;1.00;;;23.80;51.10;;;;;;4225922;28;20050;-46
2021/06/13 11:46:10;;;;;;;0.00;0.00;;;23.80;51.10;;;;;;4225043;28;20051;-45
2021/06/13 11:48:34;;;;;;;0.00;0.00;;;23.80;51.10;;;;;;4226600;27;20051;-45
2021/06/13 11:51:11;;;;;;;0.10;0.10;;;23.80;51.10;;;;;;4226380;27;20413;-48
2021/06/13 11:53:58;;;;;;;0.00;0.00;;;23.80;51.20;;;;;;4226435;27;20056;-45
2021/06/13 11:56:45;;;;;;;0.20;0.20;;;23.80;51.10;;;;;;4226325;28;20398;-47
2021/06/13 11:59:10;;;;;;;0.10;0.10;;;23.80;51.10;;;;;;4225926;28;20047;-45
2021/06/13 12:01:34;;;;;;;0.10;0.10;;;23.80;51.10;;;;;;4226353;27;20043;-47
2021/06/13 12:03:57;;;;;;;0.00;0.00;;;23.80;51.10;;;;;;4226121;27;20042;-45
2021/06/13 12:06:20;;;;;;;0.20;0.20;;;23.80;51.10;;;;;;4225744;28;20066;-47
2021/06/13 12:08:43;;;;;;;0.00;0.00;;;23.80;51.00;;;;;;4226147;28;20048;-46
2021/06/13 12:11:07;;;;;;;0.00;0.00;;;23.80;51.10;;;;;;4226009;28;20047;-45
2021/06/13 12:13:29;;;;;;;0.52;0.52;;;23.80;51.10;;;;;;4225788;28;20051;-45
2021/06/13 12:15:51;;;;;;;0.45;0.45;;;23.80;51.10;;;;;;4225986;28;20130;-49
2021/06/13 12:18:16;;;;;;;0.40;0.40;;;23.80;51.00;;;;;;4225757;28;20044;-45
2021/06/13 12:20:39;;;;;;;0.00;0.00;;;23.90;50.80;;;;;;4192403;28;20134;-47
2021/06/13 12:23:07;;;;;;;0.05;0.05;;;23.90;50.80;;;;;;4209535;28;20059;-48
2021/06/13 12:28:10;;;;;;;0.15;0.15;;;23.90;50.80;;;;;;4209195;28;20051;-47
2021/06/13 12:30:33;;;;;;;0.10;0.10;;;23.90;50.80;;;;;;4206431;28;20456;-45
2021/06/13 12:32:58;;;;;;;1.02;0.90;;;23.90;50.80;;;;;;4209024;28;20043;-48
2021/06/13 12:35:20;;;;;;;0.00;0.00;;;23.90;50.80;;;;;;4208894;28;20085;-45
2021/06/13 12:37:56;;;;;;;0.10;0.10;;;24.00;50.90;;;;;;4223175;28;20485;-47
2021/06/13 12:40:18;;;;;;;0.00;0.00;;;24.00;51.00;;;;;;4225605;27;20058;-47
2021/06/13 12:42:41;;;;;;;0.52;0.52;;;24.00;51.20;;;;;;4225854;28;20146;-47
2021/06/13 12:45:09;;;;;;;0.00;0.00;;;24.00;52.30;;;;;;4225774;28;20519;-45
2021/06/13 12:47:32;;;;;;;0.30;0.30;;;24.00;51.80;;;;;;4225539;28;20051;-46
2021/06/13 12:49:57;;;;;;;0.63;0.55;;;24.00;51.50;;;;;;4225561;27;20048;-49
2021/06/13 12:52:19;;;;;;;0.20;0.20;;;24.00;51.50;;;;;;4224696;27;20476;-45
2021/06/13 12:54:43;;;;;;;0.00;0.00;;;24.00;51.50;;;;;;4208898;28;20044;-46
2021/06/13 12:57:06;;;;;;;3.10;2.17;;;24.10;51.40;;;;;;4210421;28;20059;-48
2021/06/13 12:59:29;;;;;;;0.00;0.00;;;24.10;51.30;;;;;;4225759;27;20481;-45
2021/06/13 13:01:53;;;;;;;0.10;0.10;;;24.10;51.10;;;;;;4225356;27;20053;-45
2021/06/13 13:04:35;;;;;;;1.38;0.32;;;24.10;51.00;;;;;;4225366;27;20100;-46
2021/06/13 13:06:57;;;;;;;0.68;0.68;;;24.10;50.90;;;;;;4224845;28;20081;-45
2021/06/13 13:09:20;;;;;;;1.58;1.48;;;24.10;50.90;;;;;;4194045;28;20056;-47
2021/06/13 13:11:43;;;;;;;0.30;0.20;;;24.10;50.70;;;;;;4225390;27;20055;-45
2021/06/13 13:14:07;;;;;;;11.30;0.98;;;24.10;50.70;;;;;;4225201;27;20097;-45
2021/06/13 13:16:33;;;;;;;0.00;0.00;;;24.10;50.50;;;;;;4225288;28;20047;-49
2021/06/13 13:18:59;;;;;;;0.82;0.82;;;24.20;50.60;;;;;;4223462;28;20048;-45
2021/06/13 13:21:31;;;;;;;1.17;0.90;;;24.20;50.30;;;;;;4224341;27;20066;-46
2021/06/13 13:23:54;;;;;;;1.27;1.15;;;24.20;50.20;;;;;;4223697;28;20051;-45
2021/06/13 13:26:16;;;;;;;0.13;0.13;;;24.20;50.20;;;;;;4225137;27;20040;-45
2021/06/13 13:28:41;;;;;;;0.00;0.00;;;24.30;50.20;;;;;;4225066;28;20056;-46
2021/06/13 13:31:16;;;;;;;0.00;0.00;;;24.30;50.10;;;;;;4224629;27;20100;-45
2021/06/13 13:33:40;;;;;;;0.00;0.00;;;24.30;50.10;;;;;;4215401;27;20097;-45
2021/06/13 13:36:05;;;;;;;0.80;0.75;;;24.30;50.00;;;;;;4221308;27;20464;-48
2021/06/13 13:38:37;;;;;;;0.22;0.22;;;24.30;50.00;;;;;;4207183;28;20067;-45
2021/06/13 13:40:59;;;;;;;0.30;0.30;;;24.30;49.80;;;;;;4207827;28;20064;-48
2021/06/13 13:43:21;;;;;;;0.00;0.00;;;24.30;50.30;;;;;;4208041;28;20055;-46
2021/06/13 13:45:43;;;;;;;0.00;0.00;;;24.40;49.60;;;;;;4207993;28;20055;-47
2021/06/13 13:48:11;;;;;;;0.00;0.00;;;24.40;49.50;;;;;;4211518;28;20036;-45
2021/06/13 13:50:38;;;;;;;0.00;0.00;;;24.40;49.50;;;;;;4224526;28;20051;-45
2021/06/13 13:53:22;;;;;;;0.00;0.00;;;24.40;49.40;;;;;;4224650;28;20097;-47
2021/06/13 13:55:50;;;;;;;0.00;0.00;;;24.40;49.40;;;;;;4224211;28;20047;-47
2021/06/13 13:58:12;;;;;;;9.85;1.85;;;24.50;49.40;;;;;;4224607;28;20482;-44
2021/06/13 14:00:34;;;;;;;0.00;0.00;;;24.40;49.40;;;;;;4224703;28;20075;-47
2021/06/13 14:03:00;;;;;;;0.28;0.28;;;24.50;49.30;;;;;;4222952;28;20051;-44
2021/06/13 14:05:23;;;;;;;0.00;0.00;;;24.50;49.30;;;;;;4223467;28;20070;-46
2021/06/13 14:07:45;;;;;;;0.17;0.10;;;24.50;49.20;;;;;;4224147;28;20429;-46
2021/06/13 14:10:09;;;;;;;0.00;0.00;;;24.50;49.30;;;;;;4224475;28;20048;-43
2021/06/13 14:12:31;;;;;;;0.17;0.17;;;24.50;49.40;;;;;;4224331;28;20114;-43
2021/06/13 14:14:53;;;;;;;0.00;0.00;;;24.50;49.30;;;;;;4224078;28;20147;-47
2021/06/13 14:17:15;;;;;;;0.08;0.08;;;24.50;49.40;;;;;;4224662;28;20044;-49
2021/06/13 14:19:38;;;;;;;0.00;0.00;;;24.50;49.30;;;;;;4220270;28;20405;-48
2021/06/13 14:22:00;;;;;;;0.28;0.28;;;24.50;49.40;;;;;;4223614;28;20494;-47
2021/06/13 14:24:23;;;;;;;0.20;0.20;;;24.60;50.20;;;;;;4212193;28;20066;-47
2021/06/13 14:26:47;;;;;;;0.00;0.00;;;24.60;49.50;;;;;;4224211;28;20401;-48
2021/06/13 14:29:09;;;;;;;0.22;0.22;;;24.60;49.60;;;;;;4223947;28;20097;-48
2021/06/13 14:31:31;;;;;;;0.10;0.10;;;24.60;49.50;;;;;;4224316;28;20063;-46
2021/06/13 14:33:54;;;;;;;1.02;0.40;;;24.60;49.40;;;;;;4223764;28;20054;-54
2021/06/13 14:36:18;;;;;;;0.00;0.00;;;24.70;49.40;;;;;;4224069;28;20560;-48
2021/06/13 14:38:40;;;;;;;0.55;0.55;;;24.70;49.20;;;;;;4224162;28;20052;-52
2021/06/13 14:41:04;;;;;;;0.00;0.00;;;24.70;49.20;;;;;;4224396;28;20108;-47
2021/06/13 14:43:28;;;;;;;0.00;0.00;;;24.70;49.20;;;;;;4224298;28;20054;-47
2021/06/13 14:45:50;;;;;;;0.30;0.30;;;24.70;49.30;;;;;;4224435;28;20447;-49
2021/06/13 14:48:13;;;;;;;0.00;0.00;;;24.70;49.40;;;;;;4224287;28;20955;-46
2021/06/13 14:50:35;;;;;;;0.08;0.08;;;24.80;49.40;;;;;;4224155;28;20048;-45
2021/06/13 14:52:58;;;;;;;0.30;0.30;;;24.80;49.40;;;;;;4224102;28;20417;-45
2021/06/13 14:55:22;;;;;;;0.20;0.20;;;24.70;49.40;;;;;;4224307;28;20052;-49
2021/06/13 14:57:44;;;;;;;0.00;0.00;;;24.80;49.60;;;;;;4224073;28;20044;-48
2021/06/13 15:00:10;;;;;;;0.98;0.45;;;24.80;49.50;;;;;;4223740;28;20051;-47
2021/06/13 15:02:32;;;;;;;0.55;0.55;;;24.80;49.40;;;;;;4226615;27;20505;-46
2021/06/13 15:04:55;;;;;;;0.15;0.13;;;24.80;49.40;;;;;;4207973;28;20452;-47
2021/06/13 15:07:17;;;;;;;0.00;0.00;;;24.80;49.60;;;;;;4226267;28;20405;-47
2021/06/13 15:09:40;;;;;;;0.60;0.60;;;24.80;49.60;;;;;;4226516;28;20131;-46
2021/06/13 15:12:02;;;;;;;0.52;0.52;;;24.90;49.70;;;;;;4226876;28;20052;-45
2021/06/13 15:14:24;;;;;;;0.00;0.00;;;24.80;49.60;;;;;;4226623;28;20139;-45
2021/06/13 15:16:47;;;;;;;0.90;0.90;;;24.80;49.60;;;;;;4226128;28;20044;-44
2021/06/13 15:19:09;;;;;;;0.10;0.10;;;24.80;49.80;;;;;;4226585;27;20044;-44
2021/06/13 15:21:31;;;;;;;0.00;0.00;;;24.80;49.90;;;;;;4226989;28;20044;-45
2021/06/13 15:23:53;;;;;;;0.35;0.35;;;24.80;50.00;;;;;;4226914;27;20126;-44
2021/06/13 15:26:15;;;;;;;0.60;0.47;;;24.80;49.90;;;;;;4226757;27;20067;-45
2021/06/13 15:28:37;;;;;;;0.00;0.00;;;24.90;50.10;;;;;;4226465;27;20052;-46
2021/06/13 15:30:59;;;;;;;0.00;0.00;;;24.90;50.10;;;;;;4208669;28;20048;-44
2021/06/13 15:33:24;;;;;;;0.20;0.20;;;24.90;50.10;;;;;;4210520;27;20055;-45
2021/06/13 15:35:46;;;;;;;0.22;0.22;;;24.90;50.10;;;;;;4225150;27;20409;-45
2021/06/13 15:38:08;;;;;;;0.00;0.00;;;24.90;50.10;;;;;;4226730;27;20118;-44
2021/06/13 15:40:30;;;;;;;0.05;0.05;;;24.90;50.20;;;;;;4226898;27;20051;-44
2021/06/13 15:42:52;;;;;;;1.27;0.65;;;24.90;50.30;;;;;;4227204;28;20051;-45
2021/06/13 15:45:15;;;;;;;0.00;0.00;;;24.90;50.30;;;;;;4226549;27;20063;-44
2021/06/13 15:47:39;;;;;;;0.00;0.00;;;24.90;50.40;;;;;;4226782;27;20126;-46
2021/06/13 15:50:02;;;;;;;0.00;0.00;;;24.90;50.40;;;;;;4225921;27;20413;-45
2021/06/13 15:52:25;;;;;;;0.00;0.00;;;24.90;50.40;;;;;;4209330;28;20048;-49
2021/06/13 15:54:48;;;;;;;0.00;0.00;;;24.90;51.20;;;;;;4209537;28;20571;-46
2021/06/13 15:57:11;;;;;;;0.00;0.00;;;24.90;50.50;;;;;;4226417;27;20124;-44
2021/06/13 15:59:37;;;;;;;0.00;0.00;;;24.90;50.50;;;;;;4225095;27;20047;-45
2021/06/13 16:01:59;;;;;;;0.17;0.17;;;24.90;50.50;;;;;;4226313;28;20412;-45
2021/06/13 16:04:22;;;;;;;0.03;0.03;;;24.90;50.60;;;;;;4225891;27;20075;-45
2021/06/13 16:06:46;;;;;;;0.00;0.00;;;24.90;50.70;;;;;;4213992;28;20135;-45
2021/06/13 16:09:08;;;;;;;0.20;0.20;;;24.90;50.70;;;;;;4209387;28;20039;-45
2021/06/13 16:11:29;;;;;;;0.00;0.00;;;24.90;50.70;;;;;;4208765;28;20048;-51
2021/06/13 16:13:53;;;;;;;0.00;0.00;;;24.90;50.70;;;;;;4212753;27;20649;-46
2021/06/13 16:16:15;;;;;;;0.00;0.00;;;24.90;50.80;;;;;;4226117;27;20051;-44
2021/06/13 16:18:37;;;;;;;0.00;0.00;;;24.90;50.70;;;;;;4225816;28;20051;-45
2021/06/13 16:20:59;;;;;;;2.63;1.45;;;24.90;50.80;;;;;;4226141;28;20485;-45
2021/06/13 16:23:22;;;;;;;0.43;0.43;;;25.00;50.90;;;;;;4195695;28;20068;-45
2021/06/13 16:25:45;;;;;;;0.00;0.00;;;24.90;50.80;;;;;;4207897;28;20052;-46
2021/06/13 16:28:07;;;;;;;0.05;0.05;;;24.90;50.80;;;;;;4208873;28;20044;-47
2021/06/13 16:30:29;;;;;;;0.00;0.00;;;24.90;50.80;;;;;;4217079;28;20043;-50
2021/06/13 16:32:52;;;;;;;0.00;0.00;;;25.00;51.00;;;;;;4225703;27;20043;-47
2021/06/13 16:35:15;;;;;;;0.05;0.05;;;25.00;51.10;;;;;;4225757;27;20054;-45
2021/06/13 16:37:37;;;;;;;0.43;0.43;;;25.00;51.20;;;;;;4209822;28;20051;-50
2021/06/13 16:40:02;;;;;;;0.10;0.10;;;25.00;51.10;;;;;;4225973;27;20043;-46
2021/06/13 16:42:26;;;;;;;0.00;0.00;;;25.00;51.10;;;;;;4225176;27;20058;-47
2021/06/13 16:44:49;;;;;;;0.00;0.00;;;25.00;51.20;;;;;;4225737;27;20454;-46
2021/06/13 16:47:12;;;;;;;0.00;0.00;;;25.00;51.30;;;;;;4225581;27;20131;-47
2021/06/13 16:49:34;;;;;;;0.10;0.10;;;25.00;51.30;;;;;;4209302;28;20054;-45
2021/06/13 16:51:56;;;;;;;0.00;0.00;;;25.00;51.30;;;;;;4225180;28;20039;-46
2021/06/13 16:54:19;;;;;;;0.47;0.47;;;25.00;51.40;;;;;;4224936;28;20051;-47
2021/06/13 16:56:43;;;;;;;1.33;1.23;;;25.00;51.50;;;;;;4224960;28;20486;-45
2021/06/13 16:59:06;;;;;;;0.00;0.00;;;24.90;51.50;;;;;;4225130;28;20562;-48
2021/06/13 17:01:28;;;;;;;0.32;0.25;;;24.90;51.50;;;;;;4224559;28;20552;-50
2021/06/13 17:03:51;;;;;;;0.10;0.10;;;24.90;51.60;;;;;;4225081;28;20520;-47
2021/06/13 17:06:13;;;;;;;0.93;0.93;;;24.90;51.70;;;;;;4224870;28;20100;-45
2021/06/13 17:08:35;;;;;;;0.00;0.00;;;24.90;51.80;;;;;;4224884;28;20047;-47
2021/06/13 17:10:57;;;;;;;0.10;0.10;;;24.80;51.70;;;;;;4224202;28;20055;-47
2021/06/13 17:13:22;;;;;;;0.50;0.50;;;24.80;51.90;;;;;;4224379;28;20120;-44
2021/06/13 17:15:44;;;;;;;0.75;0.75;;;24.80;52.10;;;;;;4223056;28;20054;-46
2021/06/13 17:18:07;;;;;;;0.45;0.45;;;24.80;52.10;;;;;;4224991;28;20044;-45
2021/06/13 17:20:29;;;;;;;0.00;0.00;;;24.80;52.10;;;;;;4224955;27;20039;-46
2021/06/13 17:22:53;;;;;;;0.20;0.20;;;24.80;52.30;;;;;;4224824;28;20036;-47
2021/06/13 17:25:18;;;;;;;0.20;0.20;;;24.80;52.30;;;;;;4225076;28;20135;-46
2021/06/13 17:27:41;;;;;;;0.43;0.43;;;24.80;52.40;;;;;;4224695;28;20138;-46
2021/06/13 17:30:07;;;;;;;0.03;0.03;;;24.80;52.40;;;;;;4224944;28;20039;-45
2021/06/13 17:32:29;;;;;;;0.00;0.00;;;24.80;52.40;;;;;;4225084;27;20187;-45
2021/06/13 17:34:51;;;;;;;0.13;0.13;;;24.80;52.50;;;;;;4224814;28;20112;-49
2021/06/13 17:37:22;;;;;;;0.00;0.00;;;24.80;52.50;;;;;;4224842;27;20104;-45
2021/06/13 17:39:44;;;;;;;0.32;0.32;;;24.80;52.60;;;;;;4224635;28;20062;-46
2021/06/13 17:42:06;;;;;;;0.90;0.73;;;24.70;52.60;;;;;;4224021;28;20060;-48
2021/06/13 17:44:29;;;;;;;0.00;0.00;;;24.70;52.60;;;;;;4224159;28;20054;-46
2021/06/13 17:46:54;;;;;;;0.00;0.00;;;24.70;52.70;;;;;;4224924;28;20059;-46
2021/06/13 17:49:17;;;;;;;0.05;0.05;;;24.70;52.70;;;;;;4223495;28;20043;-49
2021/06/13 17:51:39;;;;;;;0.17;0.17;;;24.70;52.80;;;;;;4207838;28;20406;-46
2021/06/13 17:54:02;;;;;;;0.40;0.40;;;24.70;52.80;;;;;;4191160;28;20067;-45
2021/06/13 17:56:24;;;;;;;0.05;0.05;;;24.60;52.80;;;;;;4191020;28;20055;-48
2021/06/13 17:58:46;;;;;;;0.00;0.00;;;24.60;52.80;;;;;;4191126;28;20122;-45
2021/06/13 18:01:08;;;;;;;0.00;0.00;;;24.60;52.90;;;;;;4191821;28;20575;-45
2021/06/13 18:03:32;;;;;;;0.10;0.10;;;24.60;52.90;;;;;;4208952;28;20052;-45
2021/06/13 18:05:55;;;;;;;0.00;0.00;;;24.60;53.00;;;;;;4207591;28;20048;-48
2021/06/13 18:08:17;;;;;;;0.00;0.00;;;24.60;53.20;;;;;;4224665;28;20474;-51
2021/06/13 18:10:39;;;;;;;0.30;0.30;;;24.60;53.40;;;;;;4224714;28;20417;-45
2021/06/13 18:13:01;;;;;;;0.10;0.10;;;24.60;53.30;;;;;;4224640;28;20052;-49
2021/06/13 18:15:24;;;;;;;0.00;0.00;;;24.60;53.20;;;;;;4223870;28;20039;-48
2021/06/13 18:17:50;;;;;;;0.43;0.43;;;24.60;53.20;;;;;;4208551;28;20571;-45
2021/06/13 18:20:14;;;;;;;0.00;0.00;;;24.60;53.30;;;;;;4223895;28;20051;-45
2021/06/13 18:22:39;;;;;;;0.15;0.15;;;24.60;54.00;;;;;;4224320;28;20047;-48
2021/06/13 18:25:01;;;;;;;0.35;0.35;;;24.60;53.30;;;;;;4224641;28;20044;-46
2021/06/13 18:27:23;;;;;;;0.55;0.40;;;24.50;53.30;;;;;;4224714;28;20485;-48
2021/06/13 18:29:46;;;;;;;0.00;0.00;;;24.50;53.40;;;;;;4224442;28;20139;-44
2021/06/13 18:32:09;;;;;;;1.67;1.58;;;24.50;59.80;;;;;;4224060;28;20043;-50
2021/06/13 18:34:31;;;;;;;0.38;0.38;;;24.60;63.30;;;;;;4223571;27;20909;-46
2021/06/13 18:36:55;;;;;;;0.57;0.57;;;24.60;63.50;;;;;;4225824;28;20434;-45
2021/06/13 18:39:17;;;;;;;0.20;0.20;;;24.50;62.50;;;;;;4210191;28;20040;-45
2021/06/13 18:41:39;;;;;;;1.02;1.02;;;24.60;61.80;;;;;;4219025;28;20063;-50
2021/06/13 18:44:02;;;;;;;0.00;0.00;;;24.50;61.20;;;;;;4225456;27;20060;-46
2021/06/13 18:46:24;;;;;;;0.35;0.35;;;24.50;60.00;;;;;;4227172;28;20105;-45
2021/06/13 18:48:46;;;;;;;0.00;0.00;;;24.50;59.60;;;;;;4227346;27;20047;-46
2021/06/13 18:51:09;;;;;;;0.00;0.00;;;24.50;59.00;;;;;;4225683;28;20047;-44
2021/06/13 18:53:35;;;;;;;0.00;0.00;;;24.50;59.00;;;;;;4207202;28;20098;-46
2021/06/13 18:55:59;;;;;;;0.00;0.00;;;24.50;58.80;;;;;;4193719;28;20094;-47
2021/06/13 18:58:23;;;;;;;1.00;0.90;;;24.50;58.80;;;;;;4210575;28;20528;-47
2021/06/13 19:00:45;;;;;;;0.00;0.00;;;24.50;58.80;;;;;;4193555;28;20135;-45
2021/06/13 19:03:08;;;;;;;0.40;0.40;;;24.50;58.30;;;;;;4210697;28;20436;-45
2021/06/13 19:05:30;;;;;;;0.55;0.55;;;24.50;58.50;;;;;;4226529;28;20069;-44
2021/06/13 19:07:53;;;;;;;0.90;0.47;;;24.40;58.40;;;;;;4226712;27;20059;-47
2021/06/13 19:10:17;;;;;;;0.00;0.00;;;24.40;58.30;;;;;;4227371;27;20089;-45
2021/06/13 19:12:40;;;;;;;10.13;1.73;;;24.40;58.50;;;;;;4210323;28;20044;-45
2021/06/13 19:15:02;;;;;;;0.00;0.00;;;24.40;58.20;;;;;;4210480;28;20052;-46
2021/06/13 19:17:25;;;;;;;0.00;0.00;;;24.40;58.00;;;;;;4210316;28;20051;-45
2021/06/13 19:19:51;;;;;;;0.10;0.10;;;24.30;58.10;;;;;;4223569;27;20046;-46
2021/06/13 19:22:13;;;;;;;0.00;0.00;;;24.30;57.90;;;;;;4216803;28;20055;-46
2021/06/13 19:24:36;;;;;;;0.30;0.30;;;24.30;57.90;;;;;;4226925;27;20101;-45
2021/06/13 19:26:59;;;;;;;0.80;0.55;;;24.30;57.80;;;;;;4226995;27;20062;-46
2021/06/13 19:29:22;;;;;;;0.30;0.30;;;24.30;57.80;;;;;;4223975;27;20509;-46
2021/06/13 19:31:44;;;;;;;0.00;0.00;;;24.30;57.80;;;;;;4226960;27;20058;-47
2021/06/13 19:34:06;;;;;;;1.25;0.80;;;24.30;57.70;;;;;;4226679;27;20054;-47
2021/06/13 19:36:28;;;;;;;0.00;0.00;;;24.30;58.40;;;;;;4227050;27;20482;-48
2021/06/13 19:38:51;;;;;;;0.00;0.00;;;24.20;57.60;;;;;;4226855;27;20047;-47
2021/06/13 19:41:13;;;;;;;0.10;0.10;;;24.20;57.60;;;;;;4227028;27;20044;-47
2021/06/13 19:43:37;;;;;;;0.00;0.00;;;24.20;57.50;;;;;;4229745;27;20052;-45
2021/06/13 19:45:59;;;;;;;0.22;0.22;;;24.20;57.50;;;;;;4197817;28;20040;-46
2021/06/13 19:48:23;;;;;;;0.00;0.00;;;24.20;57.50;;;;;;4209602;28;20055;-46
2021/06/13 19:50:47;;;;;;;0.00;0.00;;;24.20;57.50;;;;;;4220841;27;20052;-46
2021/06/13 19:53:10;;;;;;;0.10;0.10;;;24.20;57.40;;;;;;4209856;28;20076;-46
2021/06/13 19:55:32;;;;;;;0.70;0.70;;;24.20;57.40;;;;;;4208697;28;20484;-44
2021/06/13 19:57:56;;;;;;;0.38;0.38;;;24.20;57.30;;;;;;4209462;28;20051;-47
2021/06/13 20:00:21;;;;;;;0.00;0.00;;;24.20;57.30;;;;;;4213826;28;20455;-46
2021/06/13 20:02:46;;;;;;;0.10;0.10;;;24.10;57.30;;;;;;4226622;27;20604;-46
2021/06/13 20:05:09;;;;;;;0.40;0.40;;;24.10;57.20;;;;;;4243144;27;20469;-45
2021/06/13 20:07:32;;;;;;;0.00;0.00;;;24.10;57.20;;;;;;4243008;27;20119;-47
2021/06/13 20:09:54;;;;;;;0.00;0.00;;;24.10;57.20;;;;;;4243094;27;20093;-46
2021/06/13 20:12:16;;;;;;;0.10;0.10;;;24.10;57.20;;;;;;4197597;28;20102;-45
2021/06/13 20:14:38;;;;;;;0.00;0.00;;;24.10;57.20;;;;;;4217664;28;20439;-45
2021/06/13 20:17:05;;;;;;;0.90;0.70;;;24.10;57.20;;;;;;4225995;28;20050;-46
2021/06/13 20:19:27;;;;;;;0.20;0.20;;;24.10;57.20;;;;;;4217753;27;20127;-45
2021/06/13 20:21:49;;;;;;;0.10;0.10;;;24.10;57.20;;;;;;4226390;27;20047;-47
2021/06/13 20:24:12;;;;;;;0.10;0.10;;;24.10;57.20;;;;;;4226161;27;20100;-47
2021/06/13 20:26:34;;;;;;;0.30;0.30;;;24.10;57.20;;;;;;4226177;27;20774;-45
2021/06/13 20:28:56;;;;;;;0.00;0.00;;;24.10;57.20;;;;;;4226005;27;20054;-45
2021/06/13 20:31:18;;;;;;;0.00;0.00;;;24.10;57.30;;;;;;4225836;27;20047;-44
2021/06/13 20:33:45;;;;;;;0.00;0.00;;;24.10;57.30;;;;;;4226194;27;20048;-45
2021/06/13 20:36:07;;;;;;;0.00;0.00;;;24.10;57.40;;;;;;4226017;28;20051;-46
2021/06/13 20:38:34;;;;;;;0.10;0.10;;;24.00;57.40;;;;;;4225728;27;20473;-47
2021/06/13 20:40:56;;;;;;;0.00;0.00;;;24.00;57.30;;;;;;4225634;27;20047;-45
2021/06/13 20:43:19;;;;;;;0.63;0.63;;;24.00;57.40;;;;;;4225579;28;20051;-45
2021/06/13 20:45:41;;;;;;;0.00;0.00;;;24.00;57.50;;;;;;4225850;27;20561;-46
2021/06/13 20:48:04;;;;;;;0.40;0.40;;;24.00;57.50;;;;;;4225955;27;20061;-47
2021/06/13 20:50:29;;;;;;;0.28;0.28;;;24.00;57.50;;;;;;4208941;28;20086;-45
2021/06/13 20:52:51;;;;;;;0.00;0.00;;;24.00;57.60;;;;;;4209075;28;20474;-44
2021/06/13 20:55:15;;;;;;;0.00;0.00;;;23.90;57.60;;;;;;4209070;28;20048;-46
2021/06/13 20:57:37;;;;;;;0.03;0.03;;;24.00;57.70;;;;;;4208456;28;20055;-44
2021/06/13 20:59:59;;;;;;;0.00;0.00;;;23.90;57.80;;;;;;4216714;27;20100;-47
2021/06/13 21:02:22;;;;;;;0.00;0.00;;;23.90;57.80;;;;;;4224466;27;20497;-46
2021/06/13 21:04:44;;;;;;;3.63;2.25;;;23.90;57.80;;;;;;4225136;27;20043;-46
2021/06/13 21:07:08;;;;;;;0.00;0.00;;;23.90;57.90;;;;;;4225048;28;20184;-47
2021/06/13 21:09:30;;;;;;;0.00;0.00;;;23.90;57.90;;;;;;4224239;28;20044;-50
2021/06/13 21:11:53;;;;;;;0.00;0.00;;;23.90;58.00;;;;;;4225466;27;20043;-46
2021/06/13 21:14:15;;;;;;;0.43;0.43;;;23.90;58.00;;;;;;4225058;27;20504;-46
2021/06/13 21:16:37;;;;;;;0.00;0.00;;;23.90;58.00;;;;;;4224961;28;20043;-47
2021/06/13 21:18:59;;;;;;;0.45;0.45;;;23.90;58.00;;;;;;4223629;28;20122;-49
2021/06/13 21:21:21;;;;;;;0.00;0.00;;;23.90;58.10;;;;;;4224828;28;20051;-48
2021/06/13 21:23:45;;;;;;;0.08;0.08;;;23.90;58.20;;;;;;4225337;28;20047;-48
2021/06/13 21:26:07;;;;;;;0.22;0.22;;;23.90;58.20;;;;;;4225309;27;20100;-47
2021/06/13 21:28:29;;;;;;;0.00;0.00;;;23.80;58.20;;;;;;4225226;27;20117;-50
2021/06/13 21:30:52;;;;;;;0.15;0.15;;;23.80;59.00;;;;;;4209191;28;20413;-45
2021/06/13 21:33:14;;;;;;;0.00;0.00;;;23.80;58.30;;;;;;4222982;27;20044;-46
2021/06/13 21:35:36;;;;;;;0.00;0.00;;;23.80;58.40;;;;;;4223947;28;20432;-47
2021/06/13 21:37:58;;;;;;;0.00;0.00;;;23.80;58.30;;;;;;4224178;28;20396;-49
2021/06/13 21:40:23;;;;;;;0.00;0.00;;;23.80;58.50;;;;;;4224641;27;20523;-45
2021/06/13 21:42:45;;;;;;;0.05;0.05;;;23.80;58.40;;;;;;4225217;27;20056;-47
2021/06/13 21:45:09;;;;;;;0.00;0.00;;;23.80;58.50;;;;;;4225186;28;20039;-46
2021/06/13 21:47:31;;;;;;;0.00;0.00;;;23.80;58.50;;;;;;4224748;27;20055;-49
2021/06/13 21:49:53;;;;;;;0.40;0.40;;;23.80;58.50;;;;;;4224752;27;20043;-46
2021/06/13 21:52:16;;;;;;;0.00;0.00;;;23.80;58.60;;;;;;4225021;27;20051;-47
2021/06/13 21:54:38;;;;;;;0.00;0.00;;;23.70;58.60;;;;;;4224618;28;20413;-47
2021/06/13 21:57:02;;;;;;;0.45;0.45;;;23.70;58.70;;;;;;4223184;28;20582;-47
2021/06/13 21:59:24;;;;;;;0.00;0.00;;;23.70;58.70;;;;;;4208811;28;20070;-49
2021/06/13 22:01:48;;;;;;;0.00;0.00;;;23.70;58.70;;;;;;4224036;28;20159;-48
2021/06/13 22:04:10;;;;;;;0.10;0.10;;;23.70;58.70;;;;;;4218936;28;20067;-47
2021/06/13 22:06:32;;;;;;;0.00;0.00;;;23.70;58.80;;;;;;4224694;28;20079;-45
2021/06/13 22:08:55;;;;;;;0.00;0.00;;;23.70;58.80;;;;;;4224604;28;20050;-47
2021/06/13 22:11:17;;;;;;;0.52;0.40;;;23.70;58.90;;;;;;4224546;28;20122;-47
2021/06/13 22:13:41;;;;;;;0.00;0.00;;;23.60;58.90;;;;;;4224399;28;20475;-49
2021/06/13 22:16:04;;;;;;;0.25;0.15;;;23.60;59.00;;;;;;4208791;28;20064;-47
2021/06/13 22:18:26;;;;;;;0.03;0.03;;;23.70;59.00;;;;;;4222317;28;20067;-47
2021/06/13 22:20:48;;;;;;;0.00;0.00;;;23.60;59.70;;;;;;4223924;28;20051;-46
2021/06/13 22:23:11;;;;;;;0.20;0.20;;;23.60;59.00;;;;;;4224293;28;20035;-45
2021/06/13 22:25:33;;;;;;;0.10;0.10;;;23.60;59.10;;;;;;4224438;28;20532;-47
2021/06/13 22:27:55;;;;;;;0.00;0.00;;;23.60;59.10;;;;;;4224456;28;20401;-45
2021/06/13 22:30:20;;;;;;;0.00;0.00;;;23.60;59.20;;;;;;4224457;28;20104;-47
2021/06/13 22:32:42;;;;;;;0.00;0.00;;;23.60;59.20;;;;;;4224255;28;20078;-46
2021/06/13 22:35:06;;;;;;;0.00;0.00;;;23.50;59.10;;;;;;4224098;28;20055;-46
2021/06/13 22:37:29;;;;;;;0.15;0.15;;;23.50;59.20;;;;;;4222661;28;20047;-45
2021/06/13 22:39:52;;;;;;;0.32;0.32;;;23.50;59.20;;;;;;4223456;28;20067;-46
2021/06/13 22:42:14;;;;;;;0.10;0.10;;;23.50;59.30;;;;;;4222906;28;20051;-48
2021/06/13 22:44:37;;;;;;;0.00;0.00;;;23.50;59.30;;;;;;4223983;28;20052;-46
2021/06/13 22:47:00;;;;;;;0.00;0.00;;;23.50;59.30;;;;;;4224182;28;20055;-50